Time;durP1;ratioP1;P1;durP2;ratioP2;P2;SDS_P1;SDS_P2;PMS_P1;PMS_P2;Temp;Humidity;BMP_temperature;BMP_pressure;BME280_temperature;BME280_humidity;BME280_pressure;Samples;Min_cycle;Max_cycle;Signal;HPM_P1;HPM_P2
2021/12/31 00:00:35;;;;;;;0.40;0.30;;;;;;;12.57;100.00;100917.91;5072533;28;20446;-68
2021/12/31 00:03:02;;;;;;;0.40;0.23;;;;;;;12.52;100.00;100919.91;5073067;28;20488;-70
2021/12/31 00:05:28;;;;;;;0.40;0.30;;;;;;;12.48;100.00;100918.91;5072728;28;20799;-68
2021/12/31 00:07:54;;;;;;;0.40;0.30;;;;;;;12.51;100.00;100923.72;5072718;28;20445;-68
2021/12/31 00:10:21;;;;;;;0.40;0.30;;;;;;;12.52;100.00;100925.34;5072961;28;20452;-68
2021/12/31 00:12:47;;;;;;;0.40;0.30;;;;;;;12.55;100.00;100913.88;5072545;28;20861;-68
2021/12/31 00:15:15;;;;;;;0.40;0.30;;;;;;;12.57;100.00;100922.50;5073236;28;20524;-68
2021/12/31 00:17:42;;;;;;;0.40;0.30;;;;;;;12.56;100.00;100915.47;5073392;28;20429;-67
2021/12/31 00:20:14;;;;;;;0.40;0.30;;;;;;;12.55;100.00;100911.16;5072981;28;20821;-68
2021/12/31 00:23:01;;;;;;;0.40;0.30;;;;;;;12.57;100.00;100901.59;5072943;28;20501;-69
2021/12/31 00:25:28;;;;;;;0.40;0.20;;;;;;;12.56;100.00;100902.69;5072851;28;20507;-69
2021/12/31 00:27:55;;;;;;;0.40;0.30;;;;;;;12.56;100.00;100907.31;5072408;28;20499;-68
2021/12/31 00:30:23;;;;;;;0.40;0.20;;;;;;;12.57;100.00;100906.19;5072964;28;20969;-68
2021/12/31 00:32:50;;;;;;;0.40;0.30;;;;;;;12.59;100.00;100901.28;5072405;28;20994;-68
2021/12/31 00:35:17;;;;;;;0.40;0.27;;;;;;;12.62;100.00;100895.22;5072617;28;20448;-69
2021/12/31 00:37:43;;;;;;;0.40;0.30;;;;;;;12.54;100.00;100899.47;5072910;28;20441;-68
2021/12/31 00:40:12;;;;;;;0.40;0.30;;;;;;;12.55;100.00;100897.56;5072547;28;20450;-68
2021/12/31 00:42:39;;;;;;;0.40;0.20;;;;;;;12.50;100.00;100893.03;5072613;28;20472;-69
2021/12/31 00:45:08;;;;;;;0.40;0.20;;;;;;;12.49;100.00;100896.06;5073030;28;20813;-68
2021/12/31 00:47:36;;;;;;;0.40;0.30;;;;;;;12.49;100.00;100893.34;5073057;28;20807;-68
2021/12/31 00:50:04;;;;;;;0.40;0.30;;;;;;;12.62;100.00;100892.53;5072873;28;20448;-68
2021/12/31 00:52:31;;;;;;;0.40;0.20;;;;;;;12.59;100.00;100901.28;5071736;28;20469;-68
2021/12/31 00:54:57;;;;;;;0.40;0.20;;;;;;;12.64;100.00;100893.00;5071581;28;20810;-68
2021/12/31 00:57:24;;;;;;;0.40;0.20;;;;;;;12.66;100.00;100898.94;5072804;28;20449;-68
2021/12/31 00:59:50;;;;;;;0.40;0.20;;;;;;;12.59;100.00;100906.72;5072613;28;20945;-68
2021/12/31 01:02:18;;;;;;;0.40;0.27;;;;;;;12.63;100.00;100902.28;5072710;28;20496;-68
2021/12/31 01:04:46;;;;;;;0.40;0.20;;;;;;;12.64;100.00;100912.03;5072295;28;21016;-68
2021/12/31 01:07:12;;;;;;;0.40;0.30;;;;;;;12.65;100.00;100912.81;5069207;28;20437;-68
2021/12/31 01:09:39;;;;;;;0.40;0.30;;;;;;;12.66;100.00;100917.97;5072822;28;20444;-68
2021/12/31 01:12:10;;;;;;;0.40;0.30;;;;;;;12.67;100.00;100911.41;5071817;28;20532;-68
2021/12/31 01:14:39;;;;;;;0.40;0.23;;;;;;;12.73;100.00;100912.91;5072567;28;21004;-69
2021/12/31 01:17:09;;;;;;;0.40;0.23;;;;;;;12.73;100.00;100915.63;5072281;28;20465;-69
2021/12/31 01:19:48;;;;;;;0.40;0.20;;;;;;;12.77;100.00;100916.59;5073451;28;20483;-69
2021/12/31 01:22:18;;;;;;;0.40;0.20;;;;;;;12.78;100.00;100923.66;5071434;28;20469;-69
2021/12/31 01:24:45;;;;;;;0.40;0.30;;;;;;;12.80;100.00;100918.72;5071855;28;21013;-69
2021/12/31 01:27:13;;;;;;;0.40;0.30;;;;;;;12.81;100.00;100928.47;5072386;28;20794;-68
2021/12/31 01:29:40;;;;;;;0.40;0.30;;;;;;;12.77;100.00;100924.75;5071964;28;20452;-69
2021/12/31 01:32:07;;;;;;;0.40;0.30;;;;;;;12.82;100.00;100927.38;5072400;28;20473;-69
2021/12/31 01:34:34;;;;;;;0.40;0.30;;;;;;;12.74;100.00;100936.25;5071879;28;20429;-68
2021/12/31 01:37:00;;;;;;;0.40;0.30;;;;;;;12.76;100.00;100930.53;5072565;28;20444;-69
2021/12/31 01:39:28;;;;;;;0.40;0.30;;;;;;;12.81;100.00;100931.19;5071912;28;20818;-68
2021/12/31 01:41:57;;;;;;;0.40;0.20;;;;;;;12.77;100.00;100932.91;5072126;28;20457;-68
2021/12/31 01:44:27;;;;;;;0.40;0.20;;;;;;;12.77;100.00;100932.13;5071918;28;20481;-69
2021/12/31 01:46:59;;;;;;;0.40;0.30;;;;;;;12.80;100.00;100943.19;5072105;28;20989;-69
2021/12/31 01:49:32;;;;;;;0.40;0.30;;;;;;;12.84;100.00;100927.88;5075854;28;20472;-69
2021/12/31 01:51:59;;;;;;;0.40;0.30;;;;;;;12.79;100.00;100936.16;5075787;28;20515;-69
2021/12/31 01:54:25;;;;;;;0.40;0.30;;;;;;;12.81;100.00;100944.00;5075978;28;20785;-69
2021/12/31 01:56:55;;;;;;;0.40;0.30;;;;;;;12.79;100.00;100946.19;5075161;28;20934;-68
2021/12/31 01:59:22;;;;;;;0.40;0.20;;;;;;;12.82;100.00;100934.72;5075966;28;20441;-69
2021/12/31 02:01:49;;;;;;;0.40;0.20;;;;;;;12.84;100.00;100929.78;5075368;28;20441;-69
2021/12/31 02:04:15;;;;;;;0.40;0.20;;;;;;;12.89;100.00;100935.09;5075455;28;20993;-69
2021/12/31 02:06:42;;;;;;;0.40;0.20;;;;;;;12.94;100.00;100936.91;5075564;28;20449;-69
2021/12/31 02:09:08;;;;;;;0.40;0.30;;;;;;;12.97;100.00;100933.53;5075460;28;20499;-69
2021/12/31 02:11:35;;;;;;;0.40;0.30;;;;;;;12.95;100.00;100941.22;5074875;28;20866;-68
2021/12/31 02:14:03;;;;;;;0.40;0.20;;;;;;;12.96;100.00;100942.81;5075114;28;20842;-69
2021/12/31 02:16:30;;;;;;;0.40;0.27;;;;;;;12.97;100.00;100937.09;5075403;28;20495;-69
2021/12/31 02:18:57;;;;;;;0.40;0.20;;;;;;;12.95;100.00;100931.16;5075310;28;20954;-69
2021/12/31 02:21:24;;;;;;;0.40;0.20;;;;;;;12.93;100.00;100938.81;5074892;28;20446;-69
2021/12/31 02:23:52;;;;;;;0.50;0.30;;;;;;;12.95;100.00;100939.31;5075320;28;20488;-69
2021/12/31 02:26:18;;;;;;;0.40;0.20;;;;;;;13.01;100.00;100939.97;5074599;28;20471;-69
2021/12/31 02:28:45;;;;;;;0.40;0.20;;;;;;;12.99;100.00;100944.94;5074840;28;20445;-68
2021/12/31 02:31:11;;;;;;;0.40;0.30;;;;;;;13.00;100.00;100952.78;5074634;28;20922;-69
2021/12/31 02:33:39;;;;;;;0.40;0.20;;;;;;;12.96;100.00;100959.94;5075940;28;20484;-69
2021/12/31 02:36:08;;;;;;;0.40;0.30;;;;;;;12.96;100.00;100953.69;5074968;28;20812;-69
2021/12/31 02:38:36;;;;;;;0.40;0.30;;;;;;;12.90;100.00;100950.31;5073607;28;20477;-69
2021/12/31 02:41:03;;;;;;;0.40;0.20;;;;;;;12.92;100.00;100956.22;5055171;28;20445;-69
2021/12/31 02:43:30;;;;;;;0.40;0.30;;;;;;;12.98;100.00;100959.66;5054672;28;20847;-68
2021/12/31 02:45:56;;;;;;;0.40;0.20;;;;;;;13.00;100.00;100960.13;5070081;28;20499;-69
2021/12/31 02:48:25;;;;;;;0.40;0.20;;;;;;;12.94;100.00;100959.44;5075016;28;20449;-69
2021/12/31 02:50:54;;;;;;;0.40;0.20;;;;;;;12.93;100.00;100957.84;5074360;28;20878;-69
2021/12/31 02:53:26;;;;;;;0.40;0.30;;;;;;;12.93;100.00;100943.47;5074821;28;20528;-69
2021/12/31 02:56:01;;;;;;;0.40;0.20;;;;;;;12.90;100.00;100947.59;5073035;28;20433;-68
2021/12/31 02:58:29;;;;;;;0.40;0.20;;;;;;;12.86;100.00;100952.03;5054555;28;20900;-69
2021/12/31 03:00:55;;;;;;;0.40;0.20;;;;;;;12.88;100.00;100952.50;5054721;28;20461;-69
2021/12/31 03:03:23;;;;;;;0.40;0.20;;;;;;;12.82;100.00;100945.59;5073806;28;20468;-69
2021/12/31 03:05:53;;;;;;;0.50;0.40;;;;;;;12.84;100.00;100946.91;5074436;28;20429;-69
2021/12/31 03:08:21;;;;;;;0.97;0.97;;;;;;;12.85;100.00;100945.78;5074179;28;20468;-69
2021/12/31 03:10:48;;;;;;;0.40;0.20;;;;;;;12.82;100.00;100940.97;5073988;28;20445;-69
2021/12/31 03:13:17;;;;;;;0.40;0.23;;;;;;;12.83;100.00;100942.56;5074437;28;20461;-69
2021/12/31 03:15:44;;;;;;;0.40;0.30;;;;;;;12.84;100.00;100944.19;5073965;28;20441;-69
2021/12/31 03:18:12;;;;;;;0.50;0.40;;;;;;;12.85;100.00;100934.91;5074090;28;20953;-69
2021/12/31 03:20:42;;;;;;;0.40;0.20;;;;;;;12.83;100.00;100939.03;5073759;28;20865;-69
2021/12/31 03:23:09;;;;;;;0.40;0.30;;;;;;;12.77;100.00;100935.63;5074492;28;20465;-69
2021/12/31 03:25:35;;;;;;;0.50;0.30;;;;;;;12.75;100.00;100937.88;5073851;28;20830;-69
2021/12/31 03:28:02;;;;;;;0.40;0.30;;;;;;;12.77;100.00;100938.34;5073616;28;21180;-69
2021/12/31 03:30:29;;;;;;;0.40;0.30;;;;;;;12.76;100.00;100938.69;5073925;28;20449;-69
2021/12/31 03:32:56;;;;;;;0.40;0.30;;;;;;;12.78;100.00;100939.97;5073497;28;20531;-69
2021/12/31 03:35:22;;;;;;;0.40;0.20;;;;;;;12.76;100.00;100944.91;5074092;28;20433;-69
2021/12/31 03:37:49;;;;;;;0.40;0.20;;;;;;;12.72;100.00;100943.91;5073535;28;20961;-69
2021/12/31 03:40:16;;;;;;;0.40;0.20;;;;;;;12.76;100.00;100950.34;5072940;28;20476;-69
2021/12/31 03:42:42;;;;;;;0.40;0.30;;;;;;;12.80;100.00;100948.63;5073560;28;20476;-69
2021/12/31 03:45:10;;;;;;;0.40;0.30;;;;;;;12.80;100.00;100945.91;5073421;28;20481;-69
2021/12/31 03:47:38;;;;;;;0.40;0.20;;;;;;;12.79;100.00;100938.88;5073941;28;20444;-69
2021/12/31 03:50:05;;;;;;;0.40;0.30;;;;;;;12.78;100.00;100933.72;5073790;28;20438;-69
2021/12/31 03:52:32;;;;;;;0.40;0.30;;;;;;;12.79;100.00;100941.59;5073264;28;20473;-69
2021/12/31 03:54:58;;;;;;;0.40;0.20;;;;;;;12.78;100.00;100944.59;5073653;28;20448;-69
2021/12/31 03:57:24;;;;;;;0.40;0.30;;;;;;;12.78;100.00;100939.97;5073376;28;20934;-69
2021/12/31 03:59:51;;;;;;;0.40;0.30;;;;;;;12.75;100.00;100946.03;5072934;28;20452;-69
2021/12/31 04:02:17;;;;;;;0.40;0.20;;;;;;;12.74;100.00;100935.44;5073538;28;20934;-69
2021/12/31 04:04:45;;;;;;;0.40;0.30;;;;;;;12.77;100.00;100934.84;5072716;28;20481;-69
2021/12/31 04:07:12;;;;;;;0.40;0.30;;;;;;;12.79;100.00;100935.31;5073563;28;20445;-69
2021/12/31 04:09:38;;;;;;;0.40;0.30;;;;;;;12.76;100.00;100930.53;5072699;28;20468;-67
2021/12/31 04:12:06;;;;;;;0.40;0.20;;;;;;;12.78;100.00;100917.41;5073294;28;20536;-69
2021/12/31 04:14:32;;;;;;;0.40;0.30;;;;;;;12.83;100.00;100928.97;5072656;28;20450;-69
2021/12/31 04:16:58;;;;;;;0.40;0.30;;;;;;;12.83;100.00;100923.53;5073437;28;20469;-69
2021/12/31 04:19:25;;;;;;;0.40;0.20;;;;;;;12.81;100.00;100914.88;5072954;28;20461;-69
2021/12/31 04:21:53;;;;;;;0.40;0.20;;;;;;;12.83;100.00;100914.56;5073114;28;20453;-69
2021/12/31 04:24:30;;;;;;;0.40;0.20;;;;;;;12.83;100.00;100920.00;5072685;28;20484;-66
2021/12/31 04:26:57;;;;;;;0.40;0.20;;;;;;;12.72;100.00;100924.88;5072859;28;20437;-68
2021/12/31 04:29:23;;;;;;;0.40;0.30;;;;;;;12.72;100.00;100908.56;5073210;28;20449;-68
2021/12/31 04:31:50;;;;;;;0.40;0.20;;;;;;;12.70;100.00;100912.69;5072818;28;20461;-68
2021/12/31 04:34:17;;;;;;;0.40;0.30;;;;;;;12.68;100.00;100913.03;5072945;28;20920;-69
2021/12/31 04:36:43;;;;;;;0.40;0.20;;;;;;;12.72;100.00;100911.28;5072804;28;20453;-68
2021/12/31 04:39:11;;;;;;;0.40;0.20;;;;;;;12.66;100.00;100903.56;5072579;28;20453;-69
2021/12/31 04:41:37;;;;;;;0.40;0.30;;;;;;;12.62;100.00;100909.63;5072775;28;20448;-69
2021/12/31 04:44:04;;;;;;;0.40;0.30;;;;;;;12.62;100.00;100909.63;5072671;28;20453;-69
2021/12/31 04:46:30;;;;;;;0.40;0.20;;;;;;;12.64;100.00;100917.47;5072454;28;20860;-69
2021/12/31 04:48:57;;;;;;;0.40;0.30;;;;;;;12.65;100.00;100918.25;5073338;28;20442;-69
2021/12/31 04:51:23;;;;;;;0.40;0.20;;;;;;;12.67;100.00;100900.53;5072414;28;20441;-69
2021/12/31 04:53:50;;;;;;;0.40;0.30;;;;;;;12.62;100.00;100914.25;5072939;28;20465;-69
2021/12/31 04:56:17;;;;;;;0.40;0.20;;;;;;;12.67;100.00;100910.63;5072434;28;20442;-69
2021/12/31 04:58:44;;;;;;;0.40;0.30;;;;;;;12.63;100.00;100915.84;5072329;28;20450;-68
2021/12/31 05:01:10;;;;;;;0.40;0.30;;;;;;;12.61;100.00;100910.72;5072292;28;20855;-68
2021/12/31 05:03:36;;;;;;;0.40;0.20;;;;;;;12.61;100.00;100918.06;5072458;28;20477;-69
2021/12/31 05:06:03;;;;;;;0.40;0.20;;;;;;;12.71;100.00;100911.63;5072867;28;20496;-69
2021/12/31 05:08:29;;;;;;;0.40;0.30;;;;;;;12.73;100.00;100922.97;5072613;28;20457;-68
2021/12/31 05:10:56;;;;;;;0.40;0.20;;;;;;;12.76;100.00;100919.66;5072828;28;20437;-69
2021/12/31 05:13:24;;;;;;;0.40;0.30;;;;;;;12.76;100.00;100925.09;5072078;28;20841;-69
2021/12/31 05:15:52;;;;;;;0.40;0.20;;;;;;;12.75;100.00;100918.00;5072773;28;20445;-69
2021/12/31 05:18:18;;;;;;;0.40;0.30;;;;;;;12.79;100.00;100929.88;5071955;28;20861;-69
2021/12/31 05:20:45;;;;;;;0.40;0.20;;;;;;;12.80;100.00;100929.59;5072518;28;20445;-69
2021/12/31 05:23:12;;;;;;;0.40;0.30;;;;;;;12.86;100.00;100925.63;5074743;28;20453;-69
2021/12/31 05:25:38;;;;;;;0.40;0.30;;;;;;;12.83;100.00;100925.44;5076219;28;20981;-68
2021/12/31 05:28:05;;;;;;;0.40;0.20;;;;;;;12.89;100.00;100940.53;5076547;28;20448;-69
2021/12/31 05:30:32;;;;;;;0.40;0.30;;;;;;;12.88;100.00;100931.59;5076220;28;20445;-68
2021/12/31 05:32:59;;;;;;;0.40;0.20;;;;;;;12.93;100.00;100925.22;5075682;28;20529;-68
2021/12/31 05:35:25;;;;;;;0.40;0.20;;;;;;;12.94;100.00;100918.66;5076079;28;20491;-68
2021/12/31 05:37:52;;;;;;;2.23;2.00;;;;;;;12.90;100.00;100919.59;5076333;28;20494;-69
2021/12/31 05:40:19;;;;;;;0.40;0.20;;;;;;;12.91;100.00;100923.91;5075820;28;20469;-69
2021/12/31 05:42:46;;;;;;;0.40;0.30;;;;;;;12.83;100.00;100912.66;5075641;28;20515;-69
2021/12/31 05:45:12;;;;;;;0.40;0.30;;;;;;;12.85;100.00;100920.53;5076123;28;20530;-68
2021/12/31 05:47:40;;;;;;;0.40;0.20;;;;;;;12.90;100.00;100911.44;5075880;28;20517;-68
2021/12/31 05:50:18;;;;;;;0.40;0.30;;;;;;;12.83;100.00;100914.56;5075851;28;20449;-69
2021/12/31 05:52:44;;;;;;;0.40;0.30;;;;;;;12.82;100.00;100907.53;5076045;28;20476;-69
2021/12/31 05:55:11;;;;;;;0.40;0.20;;;;;;;12.84;100.00;100925.16;5075752;28;20803;-68
2021/12/31 05:57:38;;;;;;;0.40;0.20;;;;;;;12.83;100.00;100912.66;5075981;28;20460;-69
2021/12/31 06:00:06;;;;;;;0.40;0.30;;;;;;;12.92;100.00;100936.38;5074975;28;20442;-67
2021/12/31 06:02:32;;;;;;;0.40;0.30;;;;;;;12.95;100.00;100927.63;5075591;28;20469;-68
2021/12/31 06:05:00;;;;;;;0.40;0.30;;;;;;;12.99;100.00;100934.06;5075488;28;20481;-69
2021/12/31 06:07:26;;;;;;;0.40;0.20;;;;;;;13.04;100.00;100940.16;5075797;28;20445;-68
2021/12/31 06:09:53;;;;;;;15.77;4.57;;;;;;;13.01;100.00;100939.97;5075384;28;20555;-68
2021/12/31 06:12:19;;;;;;;0.40;0.30;;;;;;;12.95;100.00;100936.59;5075653;28;20876;-68
2021/12/31 06:14:46;;;;;;;0.40;0.30;;;;;;;13.00;100.00;100933.75;5075141;28;20485;-68
2021/12/31 06:17:12;;;;;;;0.40;0.23;;;;;;;13.00;100.00;100939.19;5075328;28;20456;-68
2021/12/31 06:19:39;;;;;;;0.40;0.30;;;;;;;13.04;100.00;100937.44;5075082;28;20433;-69
2021/12/31 06:22:07;;;;;;;0.40;0.30;;;;;;;13.06;100.00;100945.31;5075467;28;20472;-68
2021/12/31 06:24:33;;;;;;;0.40;0.20;;;;;;;13.06;100.00;100940.69;5074800;28;20448;-68
2021/12/31 06:27:00;;;;;;;0.40;0.30;;;;;;;13.08;100.00;100954.75;5075481;28;20462;-68
2021/12/31 06:29:26;;;;;;;0.40;0.30;;;;;;;13.08;100.00;100959.41;5075153;28;20527;-68
2021/12/31 06:31:52;;;;;;;0.40;0.23;;;;;;;13.09;100.00;100952.84;5074893;28;20442;-68
2021/12/31 06:34:19;;;;;;;0.40;0.30;;;;;;;13.08;100.00;100956.69;5074714;28;20502;-68
2021/12/31 06:36:45;;;;;;;0.40;0.20;;;;;;;13.07;100.00;100958.59;5074657;28;20445;-68
2021/12/31 06:39:13;;;;;;;0.40;0.30;;;;;;;13.07;100.00;100964.03;5074769;28;20456;-68
2021/12/31 06:41:39;;;;;;;0.40;0.30;;;;;;;13.07;100.00;100968.69;5075105;28;20472;-68
2021/12/31 06:44:06;;;;;;;1.07;0.93;;;;;;;13.07;100.00;100949.63;5074761;28;20442;-68
2021/12/31 06:46:32;;;;;;;0.40;0.20;;;;;;;13.03;100.00;100960.31;5059445;28;20481;-68
2021/12/31 06:48:59;;;;;;;0.40;0.30;;;;;;;13.06;100.00;100961.63;5055085;28;20441;-67
2021/12/31 06:51:26;;;;;;;0.40;0.30;;;;;;;13.12;100.00;100960.38;5065053;28;20445;-68
2021/12/31 06:53:52;;;;;;;0.40;0.20;;;;;;;13.10;100.00;100951.72;5074483;28;20460;-68
2021/12/31 06:56:20;;;;;;;0.40;0.30;;;;;;;13.13;100.00;100962.00;5074453;28;20441;-68
2021/12/31 06:58:46;;;;;;;0.40;0.30;;;;;;;13.08;100.00;100962.13;5054827;28;20450;-68
2021/12/31 07:01:13;;;;;;;0.40;0.20;;;;;;;13.11;100.00;100953.34;5067388;28;20444;-67
2021/12/31 07:03:39;;;;;;;0.40;0.30;;;;;;;13.14;100.00;100952.72;5074321;28;20974;-68
2021/12/31 07:06:05;;;;;;;0.40;0.20;;;;;;;13.10;100.00;100946.28;5074343;28;20529;-68
2021/12/31 07:08:32;;;;;;;0.40;0.20;;;;;;;13.05;100.00;100955.38;5074631;28;20445;-68
2021/12/31 07:10:59;;;;;;;0.40;0.30;;;;;;;13.04;100.00;100948.31;5073977;28;20446;-68
2021/12/31 07:13:26;;;;;;;0.40;0.30;;;;;;;13.04;100.00;100955.69;5074442;28;20457;-68
2021/12/31 07:15:54;;;;;;;0.40;0.30;;;;;;;12.94;100.00;100945.06;5074333;28;20468;-68
2021/12/31 07:18:22;;;;;;;0.40;0.30;;;;;;;12.98;100.00;100954.22;5074456;28;20449;-68
2021/12/31 07:20:49;;;;;;;0.40;0.20;;;;;;;12.99;100.00;100950.38;5073498;28;20977;-68
2021/12/31 07:23:18;;;;;;;0.40;0.30;;;;;;;12.95;100.00;100954.81;5073873;28;20465;-68
2021/12/31 07:25:45;;;;;;;0.40;0.20;;;;;;;12.96;100.00;100950.97;5074196;28;20550;-68
2021/12/31 07:28:13;;;;;;;0.40;0.30;;;;;;;12.98;100.00;100957.72;5073905;28;20453;-69
2021/12/31 07:30:41;;;;;;;0.40;0.30;;;;;;;13.00;100.00;100962.84;5074442;28;20440;-68
2021/12/31 07:33:14;;;;;;;0.40;0.30;;;;;;;13.02;100.00;100971.53;5073158;28;20473;-68
2021/12/31 07:35:41;;;;;;;0.40;0.30;;;;;;;13.03;100.00;100967.69;5074137;28;20422;-68
2021/12/31 07:38:11;;;;;;;0.40;0.30;;;;;;;13.07;100.00;100961.31;5073960;28;20449;-68
2021/12/31 07:40:39;;;;;;;0.40;0.20;;;;;;;13.03;100.00;100967.69;5074015;28;20536;-68
2021/12/31 07:43:06;;;;;;;0.40;0.30;;;;;;;13.00;100.00;100968.28;5073339;28;20548;-69
2021/12/31 07:45:33;;;;;;;0.40;0.30;;;;;;;12.99;100.00;100961.25;5072777;28;21010;-68
2021/12/31 07:48:02;;;;;;;0.40;0.30;;;;;;;13.04;100.00;100966.56;5073578;28;20433;-68
2021/12/31 07:50:29;;;;;;;0.40;0.20;;;;;;;13.12;100.00;100963.13;5073865;28;20441;-69
2021/12/31 07:52:55;;;;;;;0.40;0.20;;;;;;;13.09;100.00;100961.81;5072975;28;20480;-70
2021/12/31 07:55:22;;;;;;;0.40;0.30;;;;;;;13.05;100.00;100960.00;5073728;28;20438;-69
2021/12/31 07:57:48;;;;;;;0.40;0.30;;;;;;;13.05;100.00;100976.31;5073509;28;20437;-69
2021/12/31 08:00:15;;;;;;;0.40;0.30;;;;;;;13.11;100.00;100969.66;5073301;28;20503;-68
2021/12/31 08:02:42;;;;;;;0.40;0.20;;;;;;;13.11;100.00;100967.75;5073161;28;20472;-68
2021/12/31 08:05:10;;;;;;;0.40;0.30;;;;;;;13.12;100.00;100963.13;5073485;28;20449;-68
2021/12/31 08:07:37;;;;;;;0.40;0.20;;;;;;;13.20;100.00;100973.25;5073139;28;20441;-68
2021/12/31 08:10:04;;;;;;;0.40;0.20;;;;;;;13.25;100.00;100962.28;5073374;28;20454;-70
2021/12/31 08:12:30;;;;;;;0.40;0.30;;;;;;;13.26;100.00;100968.53;5072480;28;20465;-66
2021/12/31 08:14:57;;;;;;;0.40;0.30;;;;;;;13.27;100.00;100968.19;5073454;28;20863;-69
2021/12/31 08:17:23;;;;;;;0.50;0.50;;;;;;;13.32;100.00;100961.81;5072913;28;21010;-69
2021/12/31 08:19:50;;;;;;;0.40;0.30;;;;;;;13.31;100.00;100950.16;5073276;28;20966;-69
2021/12/31 08:22:17;;;;;;;0.40;0.20;;;;;;;13.26;100.00;100954.91;5072986;28;20461;-70
2021/12/31 08:24:44;;;;;;;0.40;0.30;;;;;;;13.23;100.00;100950.09;5072745;28;20965;-71
2021/12/31 08:27:10;;;;;;;0.40;0.30;;;;;;;13.28;100.00;100939.06;5073234;28;20477;-68
2021/12/31 08:29:37;;;;;;;0.40;0.20;;;;;;;13.28;100.00;100939.06;5073056;28;20446;-69
2021/12/31 08:32:04;;;;;;;0.40;0.30;;;;;;;13.24;100.00;100952.53;5072885;28;20473;-69
2021/12/31 08:34:30;;;;;;;0.40;0.30;;;;;;;13.27;100.00;100938.28;5072769;28;20449;-70
2021/12/31 08:36:57;;;;;;;0.40;0.30;;;;;;;13.27;100.00;100932.84;5073247;28;20437;-68
2021/12/31 08:39:24;;;;;;;0.40;0.30;;;;;;;13.32;100.00;100921.81;5072866;28;20506;-68
2021/12/31 08:41:51;;;;;;;0.40;0.20;;;;;;;13.37;100.00;100932.59;5072328;28;20441;-71
2021/12/31 08:44:17;;;;;;;0.40;0.30;;;;;;;13.38;100.00;100931.47;5073085;28;20457;-68
2021/12/31 08:46:45;;;;;;;0.40;0.20;;;;;;;13.37;100.00;100929.06;5072538;28;20477;-69
2021/12/31 08:49:12;;;;;;;0.40;0.30;;;;;;;13.40;100.00;100924.91;5073284;28;20939;-68
2021/12/31 08:51:38;;;;;;;0.40;0.20;;;;;;;13.37;100.00;100927.16;5052918;28;20450;-68
2021/12/31 08:54:05;;;;;;;0.40;0.30;;;;;;;13.37;100.00;100916.28;5058690;28;20452;-68
2021/12/31 08:56:33;;;;;;;0.40;0.30;;;;;;;13.38;100.00;100926.03;5073821;28;20977;-69
2021/12/31 08:58:59;;;;;;;0.40;0.30;;;;;;;13.33;100.00;100923.44;5076640;28;20437;-69
2021/12/31 09:01:26;;;;;;;0.40;0.30;;;;;;;13.36;100.00;100932.88;5076662;28;20437;-68
2021/12/31 09:03:53;;;;;;;0.40;0.30;;;;;;;13.35;100.00;100936.72;5076731;28;20864;-69
2021/12/31 09:06:19;;;;;;;0.40;0.30;;;;;;;13.40;100.00;100938.50;5076341;28;20516;-69
2021/12/31 09:08:46;;;;;;;0.40;0.20;;;;;;;13.40;100.00;100941.25;5075915;28;20950;-68
2021/12/31 09:11:13;;;;;;;0.40;0.30;;;;;;;13.46;100.00;100942.72;5076614;28;20822;-67
2021/12/31 09:13:42;;;;;;;0.40;0.30;;;;;;;13.52;100.00;100960.53;5075695;28;20829;-71
2021/12/31 09:16:09;;;;;;;0.40;0.30;;;;;;;13.54;100.00;100945.47;5056786;28;20442;-67
2021/12/31 09:18:35;;;;;;;0.40;0.30;;;;;;;13.51;100.00;100950.75;5067543;28;20469;-67
2021/12/31 09:21:02;;;;;;;0.40;0.30;;;;;;;13.55;100.00;100949.81;5076631;28;20494;-69
2021/12/31 09:23:28;;;;;;;0.40;0.20;;;;;;;13.56;100.00;100961.50;5076257;28;20469;-69
2021/12/31 09:25:55;;;;;;;0.40;0.30;;;;;;;13.58;100.00;100962.78;5076564;28;20511;-68
2021/12/31 09:28:22;;;;;;;2.50;1.23;;;;;;;13.55;100.00;100962.63;5076398;28;20477;-68
2021/12/31 09:30:50;;;;;;;0.40;0.30;;;;;;;13.53;100.00;100960.22;5076552;28;20790;-68
2021/12/31 09:33:16;;;;;;;0.40;0.20;;;;;;;13.53;100.00;100964.84;5075562;28;20476;-67
2021/12/31 09:35:43;;;;;;;0.40;0.30;;;;;;;13.56;100.00;100956.06;5076065;28;20459;-68
2021/12/31 09:38:09;;;;;;;0.40;0.20;;;;;;;13.57;100.00;100950.31;5076204;28;20445;-67
2021/12/31 09:40:36;;;;;;;0.40;0.20;;;;;;;13.66;100.00;100942.19;5075550;28;20957;-68
2021/12/31 09:43:07;;;;;;;0.40;0.23;;;;;;;13.66;100.00;100946.84;5075844;28;20495;-68
2021/12/31 09:45:36;;;;;;;0.40;0.30;;;;;;;13.68;99.99;100947.31;5076255;28;20449;-68
2021/12/31 09:48:07;;;;;;;0.40;0.30;;;;;;;13.63;99.91;100949.06;5076045;28;20524;-68
2021/12/31 09:50:33;;;;;;;0.40;0.30;;;;;;;13.68;99.58;100944.59;5076185;28;20434;-68
2021/12/31 09:53:00;;;;;;;0.40;0.20;;;;;;;13.68;99.25;100942.69;5075576;28;20465;-68
2021/12/31 09:55:38;;;;;;;0.40;0.30;;;;;;;13.70;99.02;100936.94;5075777;28;20444;-68
2021/12/31 09:58:04;;;;;;;0.40;0.20;;;;;;;13.75;98.96;100944.94;5075735;28;20448;-67
2021/12/31 10:00:31;;;;;;;0.40;0.30;;;;;;;13.75;98.63;100945.75;5075707;28;20528;-68
2021/12/31 10:03:12;;;;;;;0.40;0.20;;;;;;;13.79;98.46;100944.00;5075636;28;20548;-68
2021/12/31 10:05:41;;;;;;;0.40;0.30;;;;;;;13.80;97.51;100934.72;5075309;28;20840;-67
2021/12/31 10:08:14;;;;;;;0.40;0.30;;;;;;;13.88;97.59;100935.88;5075168;28;20441;-68
2021/12/31 10:10:40;;;;;;;0.40;0.30;;;;;;;13.91;97.60;100931.75;5075642;28;20821;-68
2021/12/31 10:13:07;;;;;;;0.40;0.30;;;;;;;13.89;97.33;100927.38;5075067;28;20963;-67
2021/12/31 10:15:39;;;;;;;0.40;0.30;;;;;;;13.93;96.91;100932.22;5075765;28;20441;-67
2021/12/31 10:18:12;;;;;;;0.40;0.30;;;;;;;13.87;96.46;100932.34;5075342;28;20469;-67
2021/12/31 10:20:50;;;;;;;0.40;0.27;;;;;;;13.90;96.11;100933.66;5075008;28;20455;-69
2021/12/31 10:23:19;;;;;;;0.40;0.20;;;;;;;13.91;95.89;100943.44;5073579;28;20518;-66
2021/12/31 10:25:46;;;;;;;0.40;0.20;;;;;;;13.95;95.09;100922.63;5074684;28;20814;-67
2021/12/31 10:28:14;;;;;;;0.40;0.30;;;;;;;13.97;94.91;100931.25;5074984;28;20528;-69
2021/12/31 10:30:40;;;;;;;0.40;0.30;;;;;;;13.98;94.95;100923.91;5074178;28;20445;-68
2021/12/31 10:33:08;;;;;;;0.40;0.30;;;;;;;13.97;94.85;100927.75;5074887;28;20469;-68
2021/12/31 10:35:41;;;;;;;0.40;0.30;;;;;;;14.00;94.73;100929.84;5074646;28;20544;-68
2021/12/31 10:38:11;;;;;;;0.40;0.30;;;;;;;14.00;94.78;100925.19;5071283;28;20853;-69
2021/12/31 10:40:40;;;;;;;0.40;0.20;;;;;;;14.00;95.03;100911.56;5075271;28;20449;-69
2021/12/31 10:43:12;;;;;;;0.40;0.27;;;;;;;14.00;94.02;100918.94;5074938;28;20514;-68
2021/12/31 10:45:39;;;;;;;0.40;0.20;;;;;;;14.03;94.28;100924.56;5074859;28;20456;-68
2021/12/31 10:48:07;;;;;;;0.40;0.20;;;;;;;14.02;93.69;100916.69;5074254;28;20851;-68
2021/12/31 10:50:35;;;;;;;0.40;0.30;;;;;;;14.00;94.08;100918.94;5075051;28;20449;-69
2021/12/31 10:53:08;;;;;;;0.40;0.30;;;;;;;14.03;93.94;100910.13;5074626;28;20464;-69
2021/12/31 10:55:39;;;;;;;0.40;0.30;;;;;;;14.02;93.95;100916.69;5055101;28;20539;-69
2021/12/31 10:58:09;;;;;;;0.40;0.20;;;;;;;14.06;93.55;100914.94;5065814;28;20453;-69
2021/12/31 11:00:39;;;;;;;0.40;0.30;;;;;;;14.07;93.69;100919.28;5074847;28;20435;-69
2021/12/31 11:03:06;;;;;;;0.40;0.20;;;;;;;14.09;92.74;100914.31;5064937;28;20492;-69
2021/12/31 11:05:34;;;;;;;0.40;0.20;;;;;;;14.12;92.37;100910.94;5072351;28;20818;-69
2021/12/31 11:08:04;;;;;;;0.40;0.23;;;;;;;14.14;91.82;100914.19;5074238;28;20480;-70
2021/12/31 11:10:34;;;;;;;0.40;0.30;;;;;;;14.11;92.15;100904.69;5073370;28;20935;-69
2021/12/31 11:13:04;;;;;;;0.40;0.30;;;;;;;14.09;92.36;100898.78;5074648;28;20489;-69
2021/12/31 11:15:30;;;;;;;0.40;0.20;;;;;;;14.12;91.86;100910.94;5073440;28;20931;-71
2021/12/31 11:17:57;;;;;;;0.40;0.30;;;;;;;14.15;91.75;100899.44;5073815;28;20950;-67
2021/12/31 11:20:25;;;;;;;0.40;0.30;;;;;;;14.19;90.93;100894.94;5072843;28;20442;-66